Terminal Aerodrome Forecast
Issued by NWS

Home | Current Version | Previous Version | Text Only | Print | Product List | Glossary On
Versions: 1 2 3 4 5 6 7 8 9 10 11 12 13 14 15 16 17 18 19 20 21 22 23 24 25 26
000
FTUS45 KGJT 061522 AAA
TAFDRO
TAF AMD
KDRO 061522Z 0615/0712 12012G16KT P6SM SCT110
     FM061900 15012G20KT P6SM VCTS BKN250CB
     FM062200 18016G27KT P6SM BKN150
     FM070100 21014G25KT P6SM BKN110
     FM070200 20009KT P6SM BKN120
     FM070300 VRB03KT P6SM BKN100=

USA.gov is the U.S. government's official web portal to all federal, state and local government web resources and services.